Time;durP1;ratioP1;P1;durP2;ratioP2;P2;SDS_P1;SDS_P2;PMS_P1;PMS_P2;Temp;Humidity;BMP_temperature;BMP_pressure;BME280_temperature;BME280_humidity;BME280_pressure;Samples;Min_cycle;Max_cycle;Signal;HPM_P1;HPM_P2
2020/12/03 00:01:00;;;;;;;50.83;26.83;;;0.40;99.90;;;;;;5085575;28;20204;-50
2020/12/03 00:03:36;;;;;;;51.50;26.40;;;0.40;99.90;;;;;;5082937;28;20211;-43
2020/12/03 00:06:19;;;;;;;47.97;25.13;;;0.40;99.90;;;;;;5085026;28;20211;-47
2020/12/03 00:08:51;;;;;;;49.57;26.13;;;0.40;99.90;;;;;;5082453;28;20886;-46
2020/12/03 00:11:17;;;;;;;51.90;26.30;;;0.30;99.90;;;;;;5081149;28;20511;-39
2020/12/03 00:13:43;;;;;;;49.77;25.23;;;0.30;99.90;;;;;;5091225;28;20191;-51
2020/12/03 00:16:08;;;;;;;53.33;25.90;;;0.30;99.90;;;;;;5105388;28;20224;-51
2020/12/03 00:18:36;;;;;;;51.47;26.33;;;0.30;99.90;;;;;;5101244;28;20180;-44
2020/12/03 00:21:04;;;;;;;48.30;25.77;;;0.30;99.90;;;;;;5098749;28;20197;-48
2020/12/03 00:23:29;;;;;;;45.77;24.87;;;0.40;99.90;;;;;;5081327;28;20188;-41
2020/12/03 00:25:56;;;;;;;51.27;26.50;;;0.40;99.90;;;;;;5083966;28;20219;-45
2020/12/03 00:28:30;;;;;;;49.60;26.47;;;0.40;99.90;;;;;;5068474;28;20194;-43
2020/12/03 00:30:55;;;;;;;51.80;26.63;;;0.40;99.90;;;;;;5104560;28;20544;-45
2020/12/03 00:33:21;;;;;;;45.23;25.83;;;0.40;99.90;;;;;;5103335;28;20203;-45
2020/12/03 00:35:50;;;;;;;49.23;26.13;;;0.40;99.90;;;;;;5102639;28;20193;-48
2020/12/03 00:38:21;;;;;;;52.20;26.63;;;0.40;99.90;;;;;;5104515;28;20185;-43
2020/12/03 00:40:47;;;;;;;49.10;26.67;;;0.40;99.90;;;;;;5102588;28;20176;-46
2020/12/03 00:43:15;;;;;;;55.47;26.90;;;0.40;99.90;;;;;;5103355;28;20289;-42
2020/12/03 00:45:42;;;;;;;49.00;25.13;;;0.30;99.90;;;;;;5086893;28;21028;-51
2020/12/03 00:48:07;;;;;;;52.20;26.73;;;0.30;99.90;;;;;;5092228;28;20180;-53
2020/12/03 00:50:33;;;;;;;48.97;26.03;;;0.30;99.90;;;;;;5080556;28;20161;-50
2020/12/03 00:52:58;;;;;;;48.67;25.57;;;0.30;99.90;;;;;;5083748;28;20259;-46
2020/12/03 00:55:24;;;;;;;51.50;26.07;;;0.20;99.90;;;;;;5080048;28;20182;-42
2020/12/03 00:57:49;;;;;;;52.93;26.83;;;0.30;99.90;;;;;;5061956;28;20907;-46
2020/12/03 01:00:18;;;;;;;49.63;26.80;;;0.30;99.90;;;;;;5065487;28;20198;-44
2020/12/03 01:02:44;;;;;;;54.80;26.47;;;0.30;99.90;;;;;;5101322;28;20962;-46
2020/12/03 01:05:11;;;;;;;51.90;27.47;;;0.30;99.90;;;;;;5104469;28;20209;-45
2020/12/03 01:07:36;;;;;;;52.83;25.17;;;0.30;99.90;;;;;;5100074;28;20163;-48
2020/12/03 01:10:05;;;;;;;49.23;26.17;;;0.30;99.90;;;;;;5104413;28;20259;-49
2020/12/03 01:12:31;;;;;;;50.90;26.00;;;0.30;99.90;;;;;;5099745;28;20183;-43
2020/12/03 01:14:56;;;;;;;54.03;27.63;;;0.20;99.90;;;;;;5104203;28;20316;-46
2020/12/03 01:17:22;;;;;;;57.00;28.13;;;0.30;99.90;;;;;;5071008;28;20204;-43
2020/12/03 01:19:47;;;;;;;52.57;27.30;;;0.30;99.90;;;;;;5082080;28;20159;-47
2020/12/03 01:22:13;;;;;;;54.37;26.60;;;0.30;99.90;;;;;;5083658;28;20678;-43
2020/12/03 01:24:41;;;;;;;52.57;28.50;;;0.30;99.90;;;;;;5079959;28;20202;-52
2020/12/03 01:27:07;;;;;;;52.77;25.93;;;0.30;99.90;;;;;;5067624;28;20185;-46
2020/12/03 01:29:33;;;;;;;55.47;26.60;;;0.30;99.90;;;;;;5059525;28;20197;-50
2020/12/03 01:31:58;;;;;;;48.57;25.70;;;0.30;99.90;;;;;;5077611;28;20214;-44
2020/12/03 01:34:24;;;;;;;51.77;27.23;;;0.30;99.90;;;;;;5101805;28;20263;-43
2020/12/03 01:36:51;;;;;;;49.53;25.03;;;0.30;99.90;;;;;;5102501;28;20729;-47
2020/12/03 01:39:17;;;;;;;53.63;27.33;;;0.30;99.90;;;;;;5103143;28;20209;-39
2020/12/03 01:41:42;;;;;;;50.90;26.80;;;0.30;99.90;;;;;;5099375;28;20242;-45
2020/12/03 01:44:08;;;;;;;49.73;26.07;;;0.30;99.90;;;;;;5104121;28;20167;-48
2020/12/03 01:46:33;;;;;;;47.40;26.53;;;0.30;99.90;;;;;;5083367;28;20253;-47
2020/12/03 01:49:11;;;;;;;51.23;25.67;;;0.40;99.90;;;;;;5104114;28;20174;-47
2020/12/03 01:51:48;;;;;;;48.83;25.10;;;0.40;99.90;;;;;;5099883;28;20178;-46
2020/12/03 01:54:19;;;;;;;51.67;25.70;;;0.40;99.90;;;;;;5102626;28;20182;-42
2020/12/03 01:57:10;;;;;;;50.30;26.70;;;0.40;99.90;;;;;;5088447;28;20690;-51
2020/12/03 02:00:01;;;;;;;50.03;25.87;;;0.50;99.90;;;;;;5079323;28;20167;-52
2020/12/03 02:02:26;;;;;;;46.60;25.73;;;0.50;99.90;;;;;;5071626;28;20199;-41
2020/12/03 02:05:12;;;;;;;48.40;24.57;;;0.50;99.90;;;;;;5098242;28;20228;-51
2020/12/03 02:07:38;;;;;;;50.87;25.73;;;0.50;99.90;;;;;;5099473;28;20964;-51
2020/12/03 02:10:05;;;;;;;54.43;27.43;;;0.50;99.90;;;;;;5107070;27;20247;-50
2020/12/03 02:12:31;;;;;;;46.27;24.67;;;0.50;99.90;;;;;;5103531;27;20533;-43
2020/12/03 02:14:56;;;;;;;49.43;27.17;;;0.50;99.90;;;;;;5107653;28;20237;-52
2020/12/03 02:17:22;;;;;;;52.30;26.47;;;0.50;99.90;;;;;;5097914;28;20172;-41
2020/12/03 02:19:58;;;;;;;53.90;27.13;;;0.50;99.90;;;;;;5060177;28;20203;-47
2020/12/03 02:22:24;;;;;;;52.83;26.47;;;0.60;99.90;;;;;;5064331;28;20305;-45
2020/12/03 02:24:49;;;;;;;51.87;25.83;;;0.60;99.90;;;;;;5065550;28;20291;-50
2020/12/03 02:27:19;;;;;;;47.40;25.47;;;0.50;99.90;;;;;;5078161;28;20205;-42
2020/12/03 02:29:45;;;;;;;51.53;25.87;;;0.60;99.90;;;;;;5063995;28;21022;-48
2020/12/03 02:32:10;;;;;;;52.90;25.67;;;0.60;99.90;;;;;;5066803;28;20235;-49
2020/12/03 02:34:36;;;;;;;47.77;25.93;;;0.60;99.90;;;;;;5070454;28;20895;-50
2020/12/03 02:37:03;;;;;;;49.53;24.77;;;0.60;99.90;;;;;;5107632;28;20191;-45
2020/12/03 02:39:30;;;;;;;46.10;24.60;;;0.60;99.90;;;;;;5102832;28;20178;-46
2020/12/03 02:41:56;;;;;;;52.87;26.73;;;0.70;99.90;;;;;;5106775;28;20203;-49
2020/12/03 02:44:22;;;;;;;49.53;26.97;;;0.70;99.90;;;;;;5103739;28;20218;-45
2020/12/03 02:46:48;;;;;;;50.53;25.03;;;0.70;99.90;;;;;;5104684;28;20962;-50
2020/12/03 02:49:14;;;;;;;52.33;26.23;;;0.70;99.90;;;;;;5105750;28;20269;-42
2020/12/03 02:51:41;;;;;;;41.17;23.57;;;0.70;99.90;;;;;;5090230;28;20907;-46
2020/12/03 02:54:07;;;;;;;47.70;25.47;;;0.70;99.90;;;;;;5106447;28;20166;-48
2020/12/03 02:56:33;;;;;;;45.10;23.97;;;0.70;99.90;;;;;;5098608;27;20177;-44
2020/12/03 02:58:59;;;;;;;47.13;23.30;;;0.70;99.90;;;;;;5086262;28;20227;-49
2020/12/03 03:01:25;;;;;;;52.37;24.93;;;0.70;99.90;;;;;;5083968;28;20245;-42
2020/12/03 03:03:50;;;;;;;44.00;24.87;;;0.70;99.90;;;;;;5085213;28;20923;-50
2020/12/03 03:06:16;;;;;;;44.83;24.97;;;0.70;99.90;;;;;;5072422;28;20676;-47
2020/12/03 03:08:41;;;;;;;50.43;26.00;;;0.70;99.90;;;;;;5083190;28;20164;-51
2020/12/03 03:11:07;;;;;;;45.33;22.67;;;0.70;99.90;;;;;;5086398;28;20180;-48
2020/12/03 03:13:32;;;;;;;51.97;25.60;;;0.70;99.90;;;;;;5081883;28;20248;-46
2020/12/03 03:15:58;;;;;;;44.70;24.30;;;0.60;99.90;;;;;;5086101;28;20290;-51
2020/12/03 03:18:24;;;;;;;46.13;24.40;;;0.70;99.90;;;;;;5084198;28;20516;-44
2020/12/03 03:20:50;;;;;;;46.17;25.03;;;0.70;99.90;;;;;;5071907;28;24472;-45
2020/12/03 03:23:16;;;;;;;46.20;24.30;;;0.70;99.90;;;;;;5085329;28;20212;-42
2020/12/03 03:25:42;;;;;;;47.47;24.07;;;0.70;99.90;;;;;;5082658;28;20197;-51
2020/12/03 03:28:08;;;;;;;46.83;24.60;;;0.70;99.90;;;;;;5068561;28;20541;-47
2020/12/03 03:30:34;;;;;;;44.80;24.57;;;0.70;99.90;;;;;;5061386;28;20200;-48
2020/12/03 03:32:59;;;;;;;52.27;25.90;;;0.70;99.90;;;;;;5065539;28;20534;-49
2020/12/03 03:35:25;;;;;;;50.23;25.67;;;0.70;99.90;;;;;;5063006;28;20177;-47
2020/12/03 03:37:51;;;;;;;43.63;24.43;;;0.70;99.90;;;;;;5076287;28;20195;-50
2020/12/03 03:40:16;;;;;;;46.83;23.03;;;0.70;99.90;;;;;;5105429;28;20181;-45
2020/12/03 03:42:42;;;;;;;50.80;25.07;;;0.70;99.90;;;;;;5102614;28;20191;-48
2020/12/03 03:45:09;;;;;;;46.70;24.40;;;0.70;99.90;;;;;;5105220;28;20199;-48
2020/12/03 03:47:35;;;;;;;42.63;23.27;;;0.70;99.90;;;;;;5100732;28;20167;-52
2020/12/03 03:50:01;;;;;;;48.33;25.07;;;0.70;99.90;;;;;;5106079;28;20172;-48
2020/12/03 03:52:26;;;;;;;45.97;22.87;;;0.70;99.90;;;;;;5092061;28;20198;-43
2020/12/03 03:54:52;;;;;;;44.00;23.67;;;0.70;99.90;;;;;;5099577;28;20193;-46
2020/12/03 03:57:17;;;;;;;43.20;23.43;;;0.70;99.90;;;;;;5100386;28;20377;-41
2020/12/03 03:59:48;;;;;;;43.80;23.73;;;0.70;99.90;;;;;;5082401;28;20954;-49
2020/12/03 04:02:18;;;;;;;45.97;23.00;;;0.70;99.90;;;;;;5084824;28;20601;-41
2020/12/03 04:04:43;;;;;;;48.23;24.30;;;0.70;99.90;;;;;;5082500;28;20642;-50
2020/12/03 04:07:09;;;;;;;49.37;23.30;;;0.70;99.90;;;;;;5085116;28;20180;-50
2020/12/03 04:09:34;;;;;;;42.20;23.20;;;0.70;99.90;;;;;;5068443;28;20904;-50
2020/12/03 04:12:00;;;;;;;51.83;24.80;;;0.70;99.90;;;;;;5085125;28;20225;-49
2020/12/03 04:14:25;;;;;;;41.60;22.80;;;0.70;99.90;;;;;;5082452;28;20177;-43
2020/12/03 04:16:51;;;;;;;41.53;23.00;;;0.70;99.90;;;;;;5083428;28;20172;-48
2020/12/03 04:19:16;;;;;;;41.87;22.63;;;0.70;99.90;;;;;;5084077;28;20180;-40
2020/12/03 04:21:42;;;;;;;42.60;22.73;;;0.80;99.90;;;;;;5071555;28;20202;-45
2020/12/03 04:24:07;;;;;;;43.40;22.37;;;0.80;99.90;;;;;;5068350;28;20271;-48
2020/12/03 04:26:33;;;;;;;44.27;22.77;;;0.80;99.90;;;;;;5080139;28;20193;-44
2020/12/03 04:28:58;;;;;;;44.80;24.23;;;0.80;99.90;;;;;;5084697;28;20179;-49
2020/12/03 04:31:24;;;;;;;44.60;22.43;;;0.70;99.90;;;;;;5081982;28;20201;-41
2020/12/03 04:33:49;;;;;;;48.30;24.50;;;0.80;99.90;;;;;;5082852;28;20195;-50
2020/12/03 04:36:15;;;;;;;42.20;22.93;;;0.80;99.90;;;;;;5083991;28;20539;-41
2020/12/03 04:38:41;;;;;;;43.63;23.27;;;0.80;99.90;;;;;;5069992;28;20799;-45
2020/12/03 04:41:06;;;;;;;46.77;22.50;;;0.80;99.90;;;;;;5105026;28;20667;-48
2020/12/03 04:43:43;;;;;;;39.80;21.23;;;0.80;99.90;;;;;;5100469;28;20168;-41
2020/12/03 04:46:36;;;;;;;44.10;22.30;;;0.70;99.90;;;;;;5104616;28;20279;-47
2020/12/03 04:49:35;;;;;;;37.80;21.30;;;0.70;99.90;;;;;;5103890;28;20194;-48
2020/12/03 04:52:23;;;;;;;41.73;22.23;;;0.70;99.90;;;;;;5092981;28;20215;-46
2020/12/03 04:55:21;;;;;;;42.73;23.03;;;0.70;99.90;;;;;;5069375;28;20203;-46
2020/12/03 04:58:00;;;;;;;42.20;22.43;;;0.80;99.90;;;;;;5069269;28;20207;-52
2020/12/03 05:00:44;;;;;;;44.43;22.23;;;0.80;99.90;;;;;;5081624;28;20182;-41
2020/12/03 05:03:32;;;;;;;45.47;22.00;;;0.80;99.90;;;;;;5065527;28;20212;-45
2020/12/03 05:06:29;;;;;;;49.13;23.57;;;0.70;99.90;;;;;;5062482;28;20209;-47
2020/12/03 05:09:02;;;;;;;42.27;23.00;;;0.70;99.90;;;;;;5063512;28;20170;-50
2020/12/03 05:11:38;;;;;;;43.73;22.30;;;0.70;99.90;;;;;;5066422;28;20763;-44
2020/12/03 05:14:14;;;;;;;43.20;23.90;;;0.70;99.90;;;;;;5104454;27;20250;-48
2020/12/03 05:16:54;;;;;;;40.60;22.10;;;0.70;99.90;;;;;;5100435;28;20178;-46
2020/12/03 05:19:40;;;;;;;42.67;22.93;;;0.70;99.90;;;;;;5065772;28;20661;-43
2020/12/03 05:22:20;;;;;;;46.47;22.60;;;0.80;99.90;;;;;;5069448;28;20222;-52
2020/12/03 05:24:46;;;;;;;42.87;22.57;;;0.80;99.90;;;;;;5081111;28;20250;-51
2020/12/03 05:27:20;;;;;;;38.87;20.70;;;0.80;99.90;;;;;;5069753;28;20196;-49
2020/12/03 05:29:46;;;;;;;47.87;22.87;;;0.80;99.90;;;;;;5081433;28;20186;-50
2020/12/03 05:32:12;;;;;;;43.97;23.27;;;0.80;99.90;;;;;;5073241;28;20201;-46
2020/12/03 05:34:37;;;;;;;42.93;21.03;;;0.70;99.90;;;;;;5058547;28;20196;-46
2020/12/03 05:37:10;;;;;;;43.23;22.63;;;0.70;99.90;;;;;;5066906;28;20190;-49
2020/12/03 05:39:48;;;;;;;39.97;22.00;;;0.70;99.90;;;;;;5061408;28;20228;-43
2020/12/03 05:42:22;;;;;;;37.53;20.87;;;0.70;99.90;;;;;;5062956;28;20316;-46
2020/12/03 05:44:54;;;;;;;42.73;22.07;;;0.70;99.90;;;;;;5082854;28;20208;-51
2020/12/03 05:47:28;;;;;;;42.20;22.20;;;0.70;99.90;;;;;;5082015;28;20166;-41
2020/12/03 05:49:57;;;;;;;43.07;23.07;;;0.70;99.90;;;;;;5066729;28;20267;-51
2020/12/03 05:52:24;;;;;;;42.97;22.63;;;0.70;99.90;;;;;;5073058;28;20248;-44
2020/12/03 05:55:06;;;;;;;37.50;21.50;;;0.70;99.90;;;;;;5067177;28;20200;-50
2020/12/03 05:57:36;;;;;;;43.37;23.30;;;0.70;99.90;;;;;;5066084;28;20192;-41
2020/12/03 06:00:26;;;;;;;40.67;21.10;;;0.80;99.90;;;;;;5103920;28;20172;-52
2020/12/03 06:02:57;;;;;;;43.60;23.13;;;0.80;99.90;;;;;;5099366;28;20233;-49
2020/12/03 06:05:45;;;;;;;39.20;20.97;;;0.80;99.90;;;;;;5080528;28;20754;-41
2020/12/03 06:08:30;;;;;;;41.63;21.87;;;0.70;99.90;;;;;;5072605;28;20684;-49
2020/12/03 06:11:23;;;;;;;45.27;22.67;;;0.70;99.90;;;;;;5082437;28;20171;-48
2020/12/03 06:14:04;;;;;;;43.93;22.17;;;0.80;99.90;;;;;;5075709;28;20173;-47
2020/12/03 06:17:08;;;;;;;30.40;16.13;;;0.80;99.90;;;;;;5066455;28;20185;-42
2020/12/03 06:20:03;;;;;;;43.03;22.57;;;0.70;99.90;;;;;;5068044;28;20919;-51
2020/12/03 06:22:48;;;;;;;41.27;21.27;;;0.70;99.90;;;;;;5059489;28;20255;-42
2020/12/03 06:25:40;;;;;;;47.27;22.77;;;0.70;99.90;;;;;;5062599;28;20285;-42
2020/12/03 06:28:35;;;;;;;42.87;22.70;;;0.80;99.90;;;;;;5061479;28;20183;-45
2020/12/03 06:31:17;;;;;;;48.17;22.73;;;0.70;99.90;;;;;;5088886;28;20225;-50
2020/12/03 06:33:56;;;;;;;39.77;22.53;;;0.70;99.90;;;;;;5077637;28;20176;-50
2020/12/03 06:36:39;;;;;;;40.27;21.33;;;0.70;99.90;;;;;;5068737;28;20212;-42
2020/12/03 06:39:19;;;;;;;40.53;21.50;;;0.80;99.90;;;;;;5073862;28;20196;-50
2020/12/03 06:41:51;;;;;;;43.63;22.07;;;0.80;99.90;;;;;;5067220;28;20207;-47
2020/12/03 06:44:34;;;;;;;40.73;20.60;;;0.80;99.90;;;;;;5082765;28;20604;-43
2020/12/03 06:47:28;;;;;;;43.00;21.83;;;0.70;99.90;;;;;;5075275;28;20219;-47
2020/12/03 06:50:22;;;;;;;46.60;21.93;;;0.70;99.90;;;;;;5075552;28;20187;-46
2020/12/03 06:53:17;;;;;;;40.53;21.60;;;0.70;99.90;;;;;;5057574;28;20199;-48
2020/12/03 06:56:14;;;;;;;45.43;22.70;;;0.70;99.90;;;;;;5061638;28;20172;-48
2020/12/03 06:58:48;;;;;;;38.70;20.63;;;0.70;99.90;;;;;;5069322;28;22428;-48
2020/12/03 07:01:26;;;;;;;47.17;21.67;;;0.80;99.90;;;;;;5106919;28;20175;-51
2020/12/03 07:04:25;;;;;;;48.97;23.30;;;0.70;99.90;;;;;;5106159;28;20229;-44
2020/12/03 07:07:09;;;;;;;42.67;22.50;;;0.70;99.90;;;;;;5077019;28;20822;-41
2020/12/03 07:10:06;;;;;;;42.50;20.63;;;0.80;99.90;;;;;;5066191;28;20188;-43
2020/12/03 07:13:09;;;;;;;44.93;22.30;;;0.80;99.90;;;;;;5060802;28;20223;-47
2020/12/03 07:16:38;;;;;;;46.10;21.77;;;0.70;99.90;;;;;;5069465;28;20203;-44
2020/12/03 07:19:39;;;;;;;45.43;23.43;;;0.70;99.90;;;;;;5106519;28;20164;-42
2020/12/03 07:22:20;;;;;;;40.20;21.03;;;0.70;99.90;;;;;;5106357;28;20255;-45
2020/12/03 07:24:48;;;;;;;46.97;21.63;;;0.70;99.90;;;;;;5103957;28;20382;-44
2020/12/03 07:27:42;;;;;;;44.87;23.17;;;0.70;99.90;;;;;;5088030;28;20596;-51
2020/12/03 07:30:36;;;;;;;41.57;20.83;;;0.70;99.90;;;;;;5073543;28;20184;-44
2020/12/03 07:33:17;;;;;;;42.80;21.87;;;0.70;99.90;;;;;;5085981;28;20577;-42
2020/12/03 07:35:57;;;;;;;44.67;22.43;;;0.70;99.90;;;;;;5082695;28;20164;-44
2020/12/03 07:38:33;;;;;;;44.00;22.87;;;0.70;99.90;;;;;;5083546;28;20200;-47
2020/12/03 07:40:59;;;;;;;45.00;21.57;;;0.80;99.90;;;;;;5085646;28;20176;-43
2020/12/03 07:43:32;;;;;;;43.93;22.73;;;0.80;99.90;;;;;;5082792;28;20553;-48
2020/12/03 07:45:59;;;;;;;40.93;21.53;;;0.80;99.90;;;;;;5076872;28;20192;-42
2020/12/03 07:48:30;;;;;;;44.17;22.80;;;0.80;99.90;;;;;;5088520;28;20181;-46
2020/12/03 07:51:01;;;;;;;42.80;21.43;;;0.80;99.90;;;;;;5085187;28;20173;-44
2020/12/03 07:53:31;;;;;;;42.53;21.13;;;0.80;99.90;;;;;;5081065;28;20172;-47
2020/12/03 07:55:57;;;;;;;44.13;22.53;;;0.80;99.90;;;;;;5082159;28;20516;-41
2020/12/03 07:58:37;;;;;;;42.00;22.60;;;0.80;99.90;;;;;;5062908;28;20182;-45
2020/12/03 08:01:27;;;;;;;41.17;20.70;;;0.80;99.90;;;;;;5065060;28;20180;-40
2020/12/03 08:04:08;;;;;;;41.20;21.50;;;0.80;99.90;;;;;;5100987;28;20581;-42
2020/12/03 08:06:38;;;;;;;42.63;21.50;;;0.80;99.90;;;;;;5066826;28;20212;-42
2020/12/03 08:09:03;;;;;;;42.30;21.00;;;0.80;99.90;;;;;;5062340;28;20177;-52
2020/12/03 08:11:43;;;;;;;51.63;23.10;;;0.80;99.90;;;;;;5068087;28;20279;-40
2020/12/03 08:14:30;;;;;;;42.27;21.70;;;0.80;99.90;;;;;;5067264;28;20200;-45
2020/12/03 08:16:58;;;;;;;41.70;19.70;;;0.80;99.90;;;;;;5079566;28;20172;-51
2020/12/03 08:19:31;;;;;;;41.83;21.60;;;0.80;99.90;;;;;;5077133;28;20274;-40
2020/12/03 08:21:57;;;;;;;49.93;23.63;;;0.80;99.90;;;;;;5083148;28;20265;-47
2020/12/03 08:24:32;;;;;;;50.43;24.00;;;0.80;99.90;;;;;;5082219;28;20163;-45
2020/12/03 08:27:04;;;;;;;44.23;19.57;;;0.80;99.90;;;;;;5072845;28;20272;-49
2020/12/03 08:29:39;;;;;;;50.50;24.83;;;0.80;99.90;;;;;;5061815;28;20211;-40
2020/12/03 08:32:05;;;;;;;46.50;22.33;;;0.80;99.90;;;;;;5053979;28;20200;-48
2020/12/03 08:34:34;;;;;;;51.57;24.00;;;0.80;99.90;;;;;;5073279;28;20191;-43
2020/12/03 08:37:01;;;;;;;40.43;21.90;;;0.80;99.90;;;;;;5081396;28;20999;-47
2020/12/03 08:39:27;;;;;;;44.13;22.33;;;0.80;99.90;;;;;;5082864;28;20167;-44
2020/12/03 08:41:53;;;;;;;40.63;20.13;;;0.80;99.90;;;;;;5083935;28;20275;-54
2020/12/03 08:44:20;;;;;;;43.20;21.60;;;0.80;99.90;;;;;;5075312;28;20180;-41
2020/12/03 08:46:46;;;;;;;44.47;22.37;;;0.80;99.90;;;;;;5082542;28;20204;-44
2020/12/03 08:49:19;;;;;;;44.57;23.27;;;0.80;99.90;;;;;;5054667;28;20423;-43
2020/12/03 08:51:49;;;;;;;48.37;22.70;;;0.80;99.90;;;;;;5076228;28;20208;-45
2020/12/03 08:54:14;;;;;;;42.33;21.73;;;0.80;99.90;;;;;;5080037;28;20170;-48
2020/12/03 08:56:43;;;;;;;44.03;21.33;;;0.80;99.90;;;;;;5083776;28;20188;-43
2020/12/03 08:59:20;;;;;;;38.27;19.87;;;0.90;99.90;;;;;;5072784;28;20245;-49
2020/12/03 09:01:51;;;;;;;45.63;23.03;;;0.80;99.90;;;;;;5079992;28;20362;-44
2020/12/03 09:04:23;;;;;;;40.73;21.70;;;0.90;99.90;;;;;;5066559;28;20204;-45
2020/12/03 09:06:52;;;;;;;37.43;20.60;;;0.90;99.90;;;;;;5077627;28;20562;-41
2020/12/03 09:09:19;;;;;;;43.20;22.10;;;0.90;99.90;;;;;;5075722;28;20176;-43
2020/12/03 09:11:46;;;;;;;37.23;20.17;;;0.90;99.90;;;;;;5079418;28;20197;-43
2020/12/03 09:14:12;;;;;;;40.20;21.50;;;0.90;99.90;;;;;;5079705;28;20909;-40
2020/12/03 09:16:42;;;;;;;43.67;21.37;;;0.90;99.90;;;;;;5066859;28;20190;-43
2020/12/03 09:19:07;;;;;;;43.37;21.57;;;0.90;99.90;;;;;;5051495;28;20230;-45
2020/12/03 09:21:33;;;;;;;53.73;22.30;;;1.00;99.90;;;;;;5070760;28;20527;-47
2020/12/03 09:23:59;;;;;;;41.80;22.57;;;1.00;99.90;;;;;;5061905;28;20185;-47
2020/12/03 09:26:31;;;;;;;57.70;23.37;;;1.00;99.90;;;;;;5060451;28;20740;-43
2020/12/03 09:28:57;;;;;;;45.07;21.97;;;1.00;99.90;;;;;;5061912;28;20181;-50
2020/12/03 09:31:24;;;;;;;43.93;22.40;;;1.00;99.90;;;;;;5057841;28;20926;-42
2020/12/03 09:33:52;;;;;;;39.43;21.20;;;1.10;99.90;;;;;;5063876;28;20553;-42
2020/12/03 09:36:18;;;;;;;45.97;21.70;;;1.10;99.90;;;;;;5076405;28;20202;-44
2020/12/03 09:38:48;;;;;;;44.93;21.73;;;1.10;99.90;;;;;;5066986;28;20183;-46
2020/12/03 09:41:15;;;;;;;46.37;22.80;;;1.10;99.90;;;;;;5077743;28;20166;-42
2020/12/03 09:43:41;;;;;;;44.97;21.90;;;1.10;99.90;;;;;;5080729;28;20184;-43
2020/12/03 09:46:12;;;;;;;43.27;22.93;;;1.20;99.90;;;;;;5073210;28;20272;-46
2020/12/03 09:48:39;;;;;;;45.73;23.63;;;1.20;99.90;;;;;;5070869;28;20550;-45
2020/12/03 09:51:05;;;;;;;42.43;21.83;;;1.20;99.90;;;;;;5067997;28;20585;-47
2020/12/03 09:53:34;;;;;;;45.87;21.60;;;1.20;99.90;;;;;;5063921;28;20281;-45
2020/12/03 09:56:01;;;;;;;39.37;21.47;;;1.20;99.90;;;;;;5065568;28;20193;-45
2020/12/03 09:58:27;;;;;;;40.90;21.47;;;1.20;99.90;;;;;;5061986;28;20270;-42
2020/12/03 10:00:54;;;;;;;46.30;23.07;;;1.20;99.90;;;;;;5062724;28;20639;-45
2020/12/03 10:03:34;;;;;;;45.30;22.20;;;1.20;99.90;;;;;;5056678;28;20961;-45
2020/12/03 10:06:08;;;;;;;42.43;21.77;;;1.30;99.90;;;;;;5055739;28;20205;-48
2020/12/03 10:08:50;;;;;;;42.70;21.70;;;1.20;99.90;;;;;;5063042;28;20200;-46
2020/12/03 10:11:51;;;;;;;41.03;20.87;;;1.20;99.90;;;;;;5057649;28;20192;-45
2020/12/03 10:14:57;;;;;;;40.77;21.37;;;1.30;99.90;;;;;;5059420;28;20209;-42
2020/12/03 10:17:29;;;;;;;44.10;21.03;;;1.30;99.90;;;;;;5070817;28;20196;-45
2020/12/03 10:19:54;;;;;;;42.37;21.47;;;1.30;99.90;;;;;;5062227;28;20637;-45
2020/12/03 10:22:23;;;;;;;43.50;22.37;;;1.30;99.90;;;;;;5052062;28;20398;-44
2020/12/03 10:24:54;;;;;;;45.97;23.10;;;1.30;99.90;;;;;;5068028;28;20205;-43
2020/12/03 10:27:29;;;;;;;41.57;21.93;;;1.40;99.90;;;;;;5067143;28;20178;-45
2020/12/03 10:30:07;;;;;;;42.47;21.47;;;1.40;99.90;;;;;;5063156;28;20173;-45
2020/12/03 10:32:36;;;;;;;45.97;21.83;;;1.40;99.90;;;;;;5066430;28;20292;-45
2020/12/03 10:35:04;;;;;;;41.43;20.37;;;1.40;99.90;;;;;;5061217;28;20229;-48
2020/12/03 10:37:43;;;;;;;45.83;22.43;;;1.40;99.90;;;;;;5057865;28;20209;-47
2020/12/03 10:40:18;;;;;;;41.10;21.27;;;1.50;99.90;;;;;;5060550;28;20594;-45
2020/12/03 10:42:51;;;;;;;39.63;20.97;;;1.50;99.90;;;;;;5066281;28;20683;-40
2020/12/03 10:45:23;;;;;;;44.33;20.97;;;1.50;99.90;;;;;;5062709;28;20797;-42
2020/12/03 10:47:55;;;;;;;38.13;20.37;;;1.50;99.90;;;;;;5066659;28;20173;-45
2020/12/03 10:50:46;;;;;;;40.97;20.00;;;1.50;99.90;;;;;;5060098;28;20956;-44
2020/12/03 10:53:15;;;;;;;41.60;20.00;;;1.50;99.90;;;;;;5068102;28;20803;-41
2020/12/03 10:55:41;;;;;;;40.10;21.50;;;1.50;99.90;;;;;;5073431;28;20209;-42
2020/12/03 10:58:10;;;;;;;37.97;20.47;;;1.50;99.90;;;;;;5061567;28;20646;-49
2020/12/03 11:00:36;;;;;;;41.33;18.73;;;1.50;99.90;;;;;;5065915;28;20544;-41
2020/12/03 11:03:07;;;;;;;40.10;21.23;;;1.50;99.90;;;;;;5080755;28;20198;-48
2020/12/03 11:05:33;;;;;;;46.13;20.77;;;1.50;99.90;;;;;;5076009;28;20209;-41
2020/12/03 11:07:59;;;;;;;35.73;18.50;;;1.50;99.90;;;;;;5079217;28;20181;-48
2020/12/03 11:10:26;;;;;;;40.70;21.60;;;1.50;99.90;;;;;;5067509;28;20885;-45
2020/12/03 11:12:52;;;;;;;40.20;21.10;;;1.60;99.90;;;;;;5064941;28;20201;-44
2020/12/03 11:15:23;;;;;;;38.63;20.13;;;1.60;99.90;;;;;;5061029;28;20172;-46
2020/12/03 11:17:56;;;;;;;41.10;20.90;;;1.60;99.90;;;;;;5065679;28;20640;-44
2020/12/03 11:20:23;;;;;;;37.73;21.03;;;1.60;99.90;;;;;;5059631;28;20930;-47
2020/12/03 11:23:02;;;;;;;35.90;19.53;;;1.60;99.90;;;;;;5076187;28;20707;-43
2020/12/03 11:25:28;;;;;;;33.23;18.53;;;1.60;99.90;;;;;;5061488;28;21124;-44
2020/12/03 11:28:03;;;;;;;39.60;19.97;;;1.60;99.90;;;;;;5064291;28;20404;-45
2020/12/03 11:30:31;;;;;;;38.23;18.90;;;1.60;99.90;;;;;;5064052;28;20181;-42
2020/12/03 11:32:56;;;;;;;39.67;19.30;;;1.60;99.90;;;;;;5063844;28;20194;-46
2020/12/03 11:35:30;;;;;;;37.17;19.43;;;1.70;99.90;;;;;;5059366;28;20193;-45
2020/12/03 11:37:58;;;;;;;39.00;20.30;;;1.70;99.90;;;;;;5060910;28;20184;-47
2020/12/03 11:40:45;;;;;;;39.57;20.17;;;1.70;99.90;;;;;;5083272;28;20213;-42
2020/12/03 11:48:43;;;;;;;35.73;18.87;;;1.80;99.90;;;;;;5065411;28;20174;-45
2020/12/03 11:51:24;;;;;;;43.33;20.73;;;1.80;99.90;;;;;;5059111;28;20681;-44
2020/12/03 11:53:59;;;;;;;32.17;18.27;;;1.70;99.90;;;;;;5060911;28;20201;-44
2020/12/03 11:56:25;;;;;;;38.30;17.73;;;1.80;99.90;;;;;;5073596;28;20192;-45
2020/12/03 11:58:50;;;;;;;43.60;18.97;;;1.80;99.90;;;;;;5073150;28;20253;-47
2020/12/03 12:01:17;;;;;;;34.40;18.67;;;1.80;99.90;;;;;;5081136;28;20284;-46
2020/12/03 12:03:46;;;;;;;37.77;20.00;;;1.80;99.90;;;;;;5085593;28;20177;-41
2020/12/03 12:06:22;;;;;;;38.43;20.17;;;1.80;99.90;;;;;;5080830;28;20944;-42
2020/12/03 12:09:06;;;;;;;36.40;19.07;;;1.80;99.90;;;;;;5080219;28;20581;-42
2020/12/03 12:11:36;;;;;;;37.03;19.00;;;1.80;99.90;;;;;;5087171;28;20244;-46
2020/12/03 12:14:02;;;;;;;35.37;19.57;;;1.80;99.90;;;;;;5061867;28;20186;-48
2020/12/03 12:16:27;;;;;;;33.57;19.27;;;1.80;99.90;;;;;;5063282;28;20254;-45
2020/12/03 12:18:54;;;;;;;34.77;18.40;;;1.80;99.90;;;;;;5064275;28;20182;-45
2020/12/03 12:21:20;;;;;;;35.30;18.20;;;1.80;99.90;;;;;;5060384;28;20174;-44
2020/12/03 12:23:45;;;;;;;36.80;18.40;;;1.80;99.90;;;;;;5061786;28;20216;-46
2020/12/03 12:26:11;;;;;;;34.77;16.93;;;1.80;99.90;;;;;;5060367;28;20734;-45
2020/12/03 12:28:36;;;;;;;41.33;19.90;;;1.80;99.90;;;;;;5071010;28;20234;-44
2020/12/03 12:31:02;;;;;;;33.43;18.13;;;1.80;99.90;;;;;;5082631;28;20185;-44
2020/12/03 12:33:27;;;;;;;37.97;19.73;;;1.80;99.90;;;;;;5083402;28;20791;-42
2020/12/03 12:35:53;;;;;;;34.00;17.73;;;1.80;99.90;;;;;;5083786;28;20699;-44
2020/12/03 12:38:18;;;;;;;36.00;18.13;;;1.90;99.90;;;;;;5081365;28;20475;-42
2020/12/03 12:40:44;;;;;;;33.03;18.93;;;1.90;99.90;;;;;;5059106;28;20193;-44
2020/12/03 12:43:09;;;;;;;34.57;17.43;;;1.90;99.90;;;;;;5056862;28;20217;-46
2020/12/03 12:45:35;;;;;;;34.87;18.73;;;1.90;99.90;;;;;;5063338;28;20217;-42
2020/12/03 12:48:00;;;;;;;33.53;18.40;;;1.90;99.90;;;;;;5061324;28;20282;-46
2020/12/03 12:50:26;;;;;;;27.20;14.87;;;1.90;99.90;;;;;;5061732;28;20295;-45
2020/12/03 12:52:51;;;;;;;36.90;17.50;;;1.90;99.90;;;;;;5077266;28;20235;-43
2020/12/03 12:55:17;;;;;;;34.60;18.77;;;1.90;99.90;;;;;;5062399;28;20323;-42
2020/12/03 12:57:42;;;;;;;34.37;17.30;;;1.90;99.90;;;;;;5071969;28;20290;-42
2020/12/03 13:00:08;;;;;;;33.03;16.93;;;1.90;99.90;;;;;;5060172;28;20190;-43
2020/12/03 13:02:34;;;;;;;33.70;18.47;;;1.90;99.90;;;;;;5063313;28;20211;-49
2020/12/03 13:04:59;;;;;;;35.27;17.27;;;2.00;99.90;;;;;;5075279;28;20297;-46